Latest Weather Observations for Lord Howe Island Windy Point

IDN60801

Issued at 6:32 pm EDT Monday 23 October 2017 (issued every 30 minutes, with the page automatically refreshed every 10 minutes)

About weather observations | Map of weather stations | Latest weather observations for NSW | Other Formats
Station Details ID: 200715 Name: LORD HOWE ISLAND WINDY POINT Lat: -31.54 Lon: 159.07 Height: 4.0 m
Data from the previous 72 hours. | See also: Recent months for locations in New South Wales
Date/Time
EDT
Temp
°C
App
Temp
°C
Dew
Point
°C
Rel
Hum
%
Delta-T
°C
Wind Press
QNH
hPa
Press
MSL
hPa
Rain since
9am
mm
Dir  Spd
km/h
Gust
km/h
Spd
kts
Gust
kts
23/06:30pm - - - - - S 17 20 9 11 - - -
23/06:00pm - - - - - SSW 19 22 10 12 - - -
23/05:30pm - - - - - SSW 17 22 9 12 - - -
23/05:00pm - - - - - SSW 19 22 10 12 - - -
23/04:30pm - - - - - SSW 17 20 9 11 - - -
23/04:00pm - - - - - SSW 19 22 10 12 - - -
23/03:30pm - - - - - SSW 20 24 11 13 - - -
23/03:00pm - - - - - SSW 20 24 11 13 - - -
23/02:30pm - - - - - SSW 20 24 11 13 - - -
23/02:00pm - - - - - SW 19 24 10 13 - - -
23/01:30pm - - - - - SSW 19 22 10 12 - - -
23/01:00pm - - - - - SW 19 24 10 13 - - -
23/12:30pm - - - - - SSW 22 28 12 15 - - -
23/12:00pm - - - - - SSW 20 26 11 14 - - -
23/11:30am - - - - - SSW 19 22 10 12 - - -
23/11:00am - - - - - SSW 20 26 11 14 - - -
23/10:30am - - - - - SSW 20 26 11 14 - - -
23/10:00am - - - - - SSW 20 24 11 13 - - -
23/09:30am - - - - - SSW 20 26 11 14 - - -
23/09:00am - - - - - SSW 20 24 11 13 - - -
23/08:30am - - - - - SSW 22 28 12 15 - - -
23/08:00am - - - - - SSW 20 24 11 13 - - -
23/07:30am - - - - - S 13 17 7 9 - - -
23/07:00am - - - - - SSE 13 24 7 13 - - -
23/06:30am - - - - - SSE 9 19 5 10 - - -
23/06:00am - - - - - ESE 6 11 3 6 - - -
23/05:30am - - - - - CALM 0 0 0 0 - - -
23/05:00am - - - - - CALM 0 0 0 0 - - -
23/04:30am - - - - - CALM 0 0 0 0 - - -
23/04:00am - - - - - SE 11 19 6 10 - - -
23/03:30am - - - - - SSW 26 30 14 16 - - -
23/03:20am - - - - - SSW 26 32 14 17 - - -
23/03:00am - - - - - SE 6 11 3 6 - - -
23/02:30am - - - - - E 7 13 4 7 - - -
23/02:00am - - - - - ESE 7 11 4 6 - - -
23/01:30am - - - - - ESE 9 17 5 9 - - -
23/01:00am - - - - - SSE 15 24 8 13 - - -
23/12:30am - - - - - SSE 15 32 8 17 - - -
23/12:00am - - - - - S 19 35 10 19 - - -
 
Date/Time
EDT
Temp
°C
App
Temp
°C
Dew
Point
°C
Rel
Hum
%
Delta-T
°C
Wind Press
QNH
hPa
Press
MSL
hPa
Rain since
9am
mm
Dir  Spd
km/h
Gust
km/h
Spd
kts
Gust
kts
22/11:30pm - - - - - S 19 30 10 16 - - -
22/11:00pm - - - - - SSE 20 35 11 19 - - -
22/10:30pm - - - - - SSE 17 35 9 19 - - -
22/10:00pm - - - - - SE 17 33 9 18 - - -
22/09:30pm - - - - - SSE 17 30 9 16 - - -
22/09:00pm - - - - - S 19 30 10 16 - - -
22/08:30pm - - - - - SSE 22 33 12 18 - - -
22/08:00pm - - - - - SE 19 35 10 19 - - -
22/07:30pm - - - - - SSE 20 43 11 23 - - -
22/07:00pm - - - - - SSE 26 41 14 22 - - -
22/06:41pm - - - - - S 28 48 15 26 - - -
22/06:30pm - - - - - SSE 24 37 13 20 - - -
22/06:00pm - - - - - SSE 24 50 13 27 - - -
22/05:52pm - - - - - SSE 24 50 13 27 - - -
22/05:39pm - - - - - S 28 41 15 22 - - -
22/05:36pm - - - - - S 24 41 13 22 - - -
22/05:30pm - - - - - SE 17 32 9 17 - - -
22/05:00pm - - - - - S 24 37 13 20 - - -
22/04:30pm - - - - - S 26 39 14 21 - - -
22/04:00pm - - - - - SSE 24 39 13 21 - - -
22/03:30pm - - - - - SSE 24 46 13 25 - - -
22/03:00pm - - - - - SE 17 30 9 16 - - -
22/02:30pm - - - - - S 30 50 16 27 - - -
22/02:19pm - - - - - S 32 57 17 31 - - -
22/02:00pm - - - - - S 24 43 13 23 - - -
22/01:30pm - - - - - SSE 20 35 11 19 - - -
22/01:00pm - - - - - SSW 19 41 10 22 - - -
22/12:30pm - - - - - S 17 39 9 21 - - -
22/12:00pm - - - - - SSE 15 32 8 17 - - -
22/11:30am - - - - - S 13 43 7 23 - - -
22/11:00am - - - - - S 24 44 13 24 - - -
22/10:30am - - - - - S 24 41 13 22 - - -
22/10:00am - - - - - SSE 20 43 11 23 - - -
22/09:30am - - - - - SSE 17 33 9 18 - - -
22/09:00am - - - - - SE 17 35 9 19 - - -
22/08:30am - - - - - SSE 15 43 8 23 - - -
22/08:00am - - - - - S 20 41 11 22 - - -
22/07:30am - - - - - SE 17 35 9 19 - - -
22/07:00am - - - - - S 26 54 14 29 - - -
22/06:46am - - - - - S 28 54 15 29 - - -
22/06:30am - - - - - SSE 22 44 12 24 - - -
22/06:00am - - - - - SSE 32 57 17 31 - - -
22/05:51am - - - - - SSE 28 48 15 26 - - -
22/05:30am - - - - - SE 22 39 12 21 - - -
22/05:18am - - - - - SSE 30 48 16 26 - - -
22/05:00am - - - - - S 32 52 17 28 - - -
22/04:46am - - - - - SSE 32 50 17 27 - - -
22/04:42am - - - - - SSE 37 54 20 29 - - -
22/04:30am - - - - - S 37 54 20 29 - - -
22/04:00am - - - - - S 33 54 18 29 - - -
22/03:35am - - - - - S 33 56 18 30 - - -
22/03:30am - - - - - S 33 46 18 25 - - -
22/03:13am - - - - - SSE 19 48 10 26 - - -
22/03:00am - - - - - ESE 9 17 5 9 - - -
22/02:30am - - - - - NE 4 9 2 5 - - -
22/02:00am - - - - - ENE 9 15 5 8 - - -
22/01:30am - - - - - SSE 11 15 6 8 - - -
22/01:00am - - - - - SSW 32 37 17 20 - - -
22/12:30am - - - - - S 30 35 16 19 - - -
22/12:00am - - - - - SSW 26 32 14 17 - - -
 
Date/Time
EDT
Temp
°C
App
Temp
°C
Dew
Point
°C
Rel
Hum
%
Delta-T
°C
Wind Press
QNH
hPa
Press
MSL
hPa
Rain since
9am
mm
Dir  Spd
km/h
Gust
km/h
Spd
kts
Gust
kts
21/11:30pm - - - - - SSW 28 33 15 18 - - -
21/11:00pm - - - - - SW 24 28 13 15 - - -
21/10:30pm - - - - - SW 19 22 10 12 - - -
21/10:00pm - - - - - SSW 22 26 12 14 - - -
21/09:30pm - - - - - SSW 22 28 12 15 - - -
21/09:00pm - - - - - SSW 26 32 14 17 - - -
21/08:30pm - - - - - SW 28 32 15 17 - - -
21/08:00pm - - - - - WSW 26 28 14 15 - - -
21/07:30pm - - - - - WSW 28 35 15 19 - - -
21/07:00pm - - - - - WSW 30 32 16 17 - - -
21/06:30pm - - - - - WSW 32 35 17 19 - - -
21/06:00pm - - - - - WSW 26 32 14 17 - - -
21/05:30pm - - - - - W 28 32 15 17 - - -
21/05:00pm - - - - - SW 20 24 11 13 - - -
21/04:30pm - - - - - SW 20 26 11 14 - - -
21/04:00pm - - - - - WSW 28 32 15 17 - - -
21/03:30pm - - - - - W 24 26 13 14 - - -
21/03:00pm - - - - - WSW 26 30 14 16 - - -
21/02:30pm - - - - - WSW 24 28 13 15 - - -
21/02:00pm - - - - - NW 30 39 16 21 - - -
21/01:30pm - - - - - NW 30 37 16 20 - - -
21/01:00pm - - - - - NW 32 41 17 22 - - -
21/12:30pm - - - - - NW 33 43 18 23 - - -
21/12:00pm - - - - - NW 32 39 17 21 - - -
21/11:30am - - - - - NW 28 46 15 25 - - -
21/11:22am - - - - - NW 28 46 15 25 - - -
21/11:00am - - - - - NW 24 39 13 21 - - -
21/10:30am - - - - - NW 26 41 14 22 - - -
21/10:00am - - - - - NW 20 35 11 19 - - -
21/09:30am - - - - - NW 19 35 10 19 - - -
21/09:00am - - - - - NW 15 26 8 14 - - -
21/08:30am - - - - - NW 17 24 9 13 - - -
21/08:00am - - - - - NW 13 22 7 12 - - -
21/07:30am - - - - - NW 15 26 8 14 - - -
21/07:00am - - - - - NW 9 17 5 9 - - -
21/06:30am - - - - - NW 9 17 5 9 - - -
21/06:00am - - - - - NW 11 19 6 10 - - -
21/05:30am - - - - - NW 13 20 7 11 - - -
21/05:00am - - - - - NW 13 24 7 13 - - -
21/04:30am - - - - - NW 13 19 7 10 - - -
21/04:00am - - - - - NW 9 20 5 11 - - -
21/03:30am - - - - - NNW 9 15 5 8 - - -
21/03:00am - - - - - NW 11 20 6 11 - - -
21/02:30am - - - - - NNW 7 9 4 5 - - -
21/02:00am - - - - - NNW 6 11 3 6 - - -
21/01:30am - - - - - NNW 6 11 3 6 - - -
21/01:00am - - - - - NNW 7 13 4 7 - - -
21/12:30am - - - - - NNE 4 7 2 4 - - -
21/12:00am - - - - - NNW 9 13 5 7 - - -
 
Date/Time
EDT
Temp
°C
App
Temp
°C
Dew
Point
°C
Rel
Hum
%
Delta-T
°C
Wind Press
QNH
hPa
Press
MSL
hPa
Rain since
9am
mm
Dir  Spd
km/h
Gust
km/h
Spd
kts
Gust
kts
20/11:30pm - - - - - NNW 9 13 5 7 - - -
20/11:00pm - - - - - NNW 9 13 5 7 - - -
20/10:30pm - - - - - N 6 9 3 5 - - -
20/10:00pm - - - - - NW 6 9 3 5 - - -
20/09:30pm - - - - - NNW 7 11 4 6 - - -
20/09:00pm - - - - - NNW 9 13 5 7 - - -
20/08:30pm - - - - - N 11 15 6 8 - - -
20/08:00pm - - - - - N 6 9 3 5 - - -
20/07:30pm - - - - - N 4 7 2 4 - - -
20/07:00pm - - - - - NW 7 11 4 6 - - -

Other Formats:

Comma delimited format used in spreadsheet applications
http://www.bom.gov.au/fwo/IDN60801/IDN60801.95995.axf

JavaScript Object Notation format (JSON) in row-major order
http://www.bom.gov.au/fwo/IDN60801/IDN60801.95995.json